< < Back
Terminal Aerodrome Forecast


Current Version              Previous Versions:   1  2  3  4  5  6  7  8  9  

Terminal Aerodrome Forecast

889
FTUS44 KMRX 262328
TAFTYS
TAF
KTYS 262328Z 2700/2724 VRB04KT P6SM SCT060
     FM270200 22003KT P6SM SCT150 BKN250
     FM271000 18003KT 5SM BR BKN250
     FM271400 22006KT P6SM SCT040 BKN150
     FM271800 25005KT P6SM VCTS BKN050CB=



Latest METAR

644
SAUS80 KWBC 271100 RRA
MTRTYS
METAR KTYS 271053Z 14003KT 10SM SCT150 SCT250 24/21 A3008 RMK AO2 SLP173
T02390206


USA.gov is the U.S. government's official web portal to all federal, state and local government web resources and services.